sensor_id;sensor_type;location;lat;lon;timestamp;P1;durP1;ratioP1;P2;durP2;ratioP2
3274;SDS011;1649;53.672;10.064;2022-11-18T00:00:25;32.10;;;13.60;;
3274;SDS011;1649;53.672;10.064;2022-11-18T00:02:51;36.33;;;15.80;;
3274;SDS011;1649;53.672;10.064;2022-11-18T00:05:16;32.97;;;15.80;;
3274;SDS011;1649;53.672;10.064;2022-11-18T00:07:42;33.20;;;14.70;;
3274;SDS011;1649;53.672;10.064;2022-11-18T00:10:07;33.00;;;16.10;;
3274;SDS011;1649;53.672;10.064;2022-11-18T00:12:33;38.77;;;14.87;;
3274;SDS011;1649;53.672;10.064;2022-11-18T00:15:17;34.27;;;15.60;;
3274;SDS011;1649;53.672;10.064;2022-11-18T00:17:42;40.67;;;17.43;;
3274;SDS011;1649;53.672;10.064;2022-11-18T00:20:08;37.87;;;15.60;;
3274;SDS011;1649;53.672;10.064;2022-11-18T00:22:34;41.73;;;16.93;;
3274;SDS011;1649;53.672;10.064;2022-11-18T00:24:59;40.10;;;17.60;;
3274;SDS011;1649;53.672;10.064;2022-11-18T00:27:28;34.33;;;15.60;;
3274;SDS011;1649;53.672;10.064;2022-11-18T00:29:55;37.30;;;16.87;;
3274;SDS011;1649;53.672;10.064;2022-11-18T00:32:20;32.60;;;15.60;;
3274;SDS011;1649;53.672;10.064;2022-11-18T00:34:46;37.73;;;16.27;;
3274;SDS011;1649;53.672;10.064;2022-11-18T00:37:11;36.20;;;16.37;;
3274;SDS011;1649;53.672;10.064;2022-11-18T00:39:37;42.50;;;17.37;;
3274;SDS011;1649;53.672;10.064;2022-11-18T00:42:02;41.90;;;16.40;;
3274;SDS011;1649;53.672;10.064;2022-11-18T00:44:46;34.50;;;15.83;;
3274;SDS011;1649;53.672;10.064;2022-11-18T00:47:12;36.47;;;16.83;;
3274;SDS011;1649;53.672;10.064;2022-11-18T00:49:37;35.33;;;16.43;;
3274;SDS011;1649;53.672;10.064;2022-11-18T00:52:03;36.60;;;16.50;;
3274;SDS011;1649;53.672;10.064;2022-11-18T00:54:29;41.47;;;16.27;;
3274;SDS011;1649;53.672;10.064;2022-11-18T00:56:54;39.43;;;16.10;;
3274;SDS011;1649;53.672;10.064;2022-11-18T00:59:20;38.90;;;15.67;;
3274;SDS011;1649;53.672;10.064;2022-11-18T01:01:45;38.40;;;16.57;;
3274;SDS011;1649;53.672;10.064;2022-11-18T01:04:12;37.47;;;15.87;;
3274;SDS011;1649;53.672;10.064;2022-11-18T01:06:38;35.30;;;16.13;;
3274;SDS011;1649;53.672;10.064;2022-11-18T01:09:03;38.23;;;16.50;;
3274;SDS011;1649;53.672;10.064;2022-11-18T01:11:29;37.33;;;15.97;;
3274;SDS011;1649;53.672;10.064;2022-11-18T01:14:13;40.77;;;15.47;;
3274;SDS011;1649;53.672;10.064;2022-11-18T01:16:39;39.03;;;17.80;;
3274;SDS011;1649;53.672;10.064;2022-11-18T01:19:04;39.60;;;16.93;;
3274;SDS011;1649;53.672;10.064;2022-11-18T01:21:30;40.67;;;16.10;;
3274;SDS011;1649;53.672;10.064;2022-11-18T01:23:55;46.57;;;18.70;;
3274;SDS011;1649;53.672;10.064;2022-11-18T01:26:20;41.17;;;16.27;;
3274;SDS011;1649;53.672;10.064;2022-11-18T01:28:46;39.40;;;17.63;;
3274;SDS011;1649;53.672;10.064;2022-11-18T01:31:13;36.37;;;16.40;;
3274;SDS011;1649;53.672;10.064;2022-11-18T01:33:40;43.77;;;17.07;;
3274;SDS011;1649;53.672;10.064;2022-11-18T01:36:16;39.93;;;16.50;;
3274;SDS011;1649;53.672;10.064;2022-11-18T01:38:44;36.00;;;16.77;;
3274;SDS011;1649;53.672;10.064;2022-11-18T01:41:10;37.67;;;17.17;;
3274;SDS011;1649;53.672;10.064;2022-11-18T01:43:55;35.67;;;16.67;;
3274;SDS011;1649;53.672;10.064;2022-11-18T01:46:24;38.27;;;18.57;;
3274;SDS011;1649;53.672;10.064;2022-11-18T01:48:53;41.00;;;18.07;;
3274;SDS011;1649;53.672;10.064;2022-11-18T01:51:24;34.50;;;15.97;;
3274;SDS011;1649;53.672;10.064;2022-11-18T01:53:58;39.70;;;18.73;;
3274;SDS011;1649;53.672;10.064;2022-11-18T01:56:51;41.97;;;18.30;;
3274;SDS011;1649;53.672;10.064;2022-11-18T01:59:17;39.90;;;17.80;;
3274;SDS011;1649;53.672;10.064;2022-11-18T02:01:46;42.00;;;18.50;;
3274;SDS011;1649;53.672;10.064;2022-11-18T02:04:12;43.90;;;17.63;;
3274;SDS011;1649;53.672;10.064;2022-11-18T02:06:38;44.10;;;19.60;;
3274;SDS011;1649;53.672;10.064;2022-11-18T02:09:05;39.80;;;18.43;;
3274;SDS011;1649;53.672;10.064;2022-11-18T02:11:31;41.03;;;18.67;;
3274;SDS011;1649;53.672;10.064;2022-11-18T02:14:15;36.80;;;17.35;;
3274;SDS011;1649;53.672;10.064;2022-11-18T02:17:01;35.90;;;16.75;;
3274;SDS011;1649;53.672;10.064;2022-11-18T02:19:49;38.90;;;15.60;;
3274;SDS011;1649;53.672;10.064;2022-11-18T02:23:10;35.63;;;17.60;;
3274;SDS011;1649;53.672;10.064;2022-11-18T02:25:58;35.83;;;17.10;;
3274;SDS011;1649;53.672;10.064;2022-11-18T02:29:02;34.67;;;16.57;;
3274;SDS011;1649;53.672;10.064;2022-11-18T02:34:21;41.37;;;18.70;;
3274;SDS011;1649;53.672;10.064;2022-11-18T02:36:56;38.20;;;17.70;;
3274;SDS011;1649;53.672;10.064;2022-11-18T02:39:30;42.50;;;19.30;;
3274;SDS011;1649;53.672;10.064;2022-11-18T02:42:03;43.30;;;18.37;;
3274;SDS011;1649;53.672;10.064;2022-11-18T02:44:33;38.73;;;16.93;;
3274;SDS011;1649;53.672;10.064;2022-11-18T02:47:02;39.67;;;17.97;;
3274;SDS011;1649;53.672;10.064;2022-11-18T02:49:33;37.20;;;16.93;;
3274;SDS011;1649;53.672;10.064;2022-11-18T02:52:05;38.00;;;16.97;;
3274;SDS011;1649;53.672;10.064;2022-11-18T02:54:34;38.93;;;17.33;;
3274;SDS011;1649;53.672;10.064;2022-11-18T02:57:02;36.93;;;17.90;;
3274;SDS011;1649;53.672;10.064;2022-11-18T02:59:29;38.10;;;18.47;;
3274;SDS011;1649;53.672;10.064;2022-11-18T03:01:54;35.83;;;17.20;;
3274;SDS011;1649;53.672;10.064;2022-11-18T03:07:01;32.70;;;15.60;;
3274;SDS011;1649;53.672;10.064;2022-11-18T03:09:37;38.60;;;16.80;;
3274;SDS011;1649;53.672;10.064;2022-11-18T03:12:22;38.30;;;16.60;;
3274;SDS011;1649;53.672;10.064;2022-11-18T03:15:13;35.87;;;17.53;;
3274;SDS011;1649;53.672;10.064;2022-11-18T03:20:33;38.27;;;17.60;;
3274;SDS011;1649;53.672;10.064;2022-11-18T03:23:10;38.30;;;16.30;;
3274;SDS011;1649;53.672;10.064;2022-11-18T03:25:44;36.20;;;16.40;;
3274;SDS011;1649;53.672;10.064;2022-11-18T03:28:26;37.93;;;16.10;;
3274;SDS011;1649;53.672;10.064;2022-11-18T03:31:07;37.07;;;17.20;;
3274;SDS011;1649;53.672;10.064;2022-11-18T03:33:56;38.07;;;19.00;;
3274;SDS011;1649;53.672;10.064;2022-11-18T03:36:35;37.10;;;16.60;;
3274;SDS011;1649;53.672;10.064;2022-11-18T03:39:04;33.63;;;15.97;;
3274;SDS011;1649;53.672;10.064;2022-11-18T03:41:34;38.88;;;19.25;;
3274;SDS011;1649;53.672;10.064;2022-11-18T03:44:05;35.17;;;16.07;;
3274;SDS011;1649;53.672;10.064;2022-11-18T03:46:39;36.90;;;18.97;;
3274;SDS011;1649;53.672;10.064;2022-11-18T03:49:27;36.63;;;16.83;;
3274;SDS011;1649;53.672;10.064;2022-11-18T03:51:59;47.10;;;19.20;;
3274;SDS011;1649;53.672;10.064;2022-11-18T03:54:32;34.07;;;17.63;;
3274;SDS011;1649;53.672;10.064;2022-11-18T03:57:04;36.20;;;16.77;;
3274;SDS011;1649;53.672;10.064;2022-11-18T03:59:47;38.07;;;16.93;;
3274;SDS011;1649;53.672;10.064;2022-11-18T04:02:26;37.93;;;16.87;;
3274;SDS011;1649;53.672;10.064;2022-11-18T04:04:54;42.30;;;19.07;;
3274;SDS011;1649;53.672;10.064;2022-11-18T04:07:26;34.43;;;16.57;;
3274;SDS011;1649;53.672;10.064;2022-11-18T04:10:12;40.13;;;19.07;;
3274;SDS011;1649;53.672;10.064;2022-11-18T04:13:16;38.20;;;17.63;;
3274;SDS011;1649;53.672;10.064;2022-11-18T04:15:46;37.50;;;17.40;;
3274;SDS011;1649;53.672;10.064;2022-11-18T04:18:12;43.10;;;20.90;;
3274;SDS011;1649;53.672;10.064;2022-11-18T04:20:37;45.00;;;19.60;;
3274;SDS011;1649;53.672;10.064;2022-11-18T04:23:03;43.70;;;20.30;;
3274;SDS011;1649;53.672;10.064;2022-11-18T04:25:29;47.17;;;19.47;;
3274;SDS011;1649;53.672;10.064;2022-11-18T04:27:55;46.70;;;19.60;;
3274;SDS011;1649;53.672;10.064;2022-11-18T04:30:20;44.97;;;21.53;;
3274;SDS011;1649;53.672;10.064;2022-11-18T04:32:46;42.93;;;17.13;;
3274;SDS011;1649;53.672;10.064;2022-11-18T04:35:11;44.63;;;20.00;;
3274;SDS011;1649;53.672;10.064;2022-11-18T04:37:37;46.27;;;20.67;;
3274;SDS011;1649;53.672;10.064;2022-11-18T04:40:03;40.97;;;18.50;;
3274;SDS011;1649;53.672;10.064;2022-11-18T04:42:29;45.10;;;20.10;;
3274;SDS011;1649;53.672;10.064;2022-11-18T04:44:54;43.87;;;19.60;;
3274;SDS011;1649;53.672;10.064;2022-11-18T04:47:20;41.90;;;18.47;;
3274;SDS011;1649;53.672;10.064;2022-11-18T04:49:45;43.47;;;19.83;;
3274;SDS011;1649;53.672;10.064;2022-11-18T04:52:11;43.50;;;20.37;;
3274;SDS011;1649;53.672;10.064;2022-11-18T04:54:37;44.03;;;21.23;;
3274;SDS011;1649;53.672;10.064;2022-11-18T04:57:02;45.63;;;19.33;;
3274;SDS011;1649;53.672;10.064;2022-11-18T04:59:28;42.60;;;20.90;;
3274;SDS011;1649;53.672;10.064;2022-11-18T05:01:55;50.20;;;22.27;;
3274;SDS011;1649;53.672;10.064;2022-11-18T05:04:22;40.53;;;19.63;;
3274;SDS011;1649;53.672;10.064;2022-11-18T05:06:49;47.45;;;20.00;;
3274;SDS011;1649;53.672;10.064;2022-11-18T05:09:15;43.33;;;19.90;;
3274;SDS011;1649;53.672;10.064;2022-11-18T05:11:41;46.88;;;21.23;;
3274;SDS011;1649;53.672;10.064;2022-11-18T05:14:26;47.40;;;20.50;;
3274;SDS011;1649;53.672;10.064;2022-11-18T05:16:53;46.35;;;19.98;;
3274;SDS011;1649;53.672;10.064;2022-11-18T05:19:19;47.50;;;22.75;;
3274;SDS011;1649;53.672;10.064;2022-11-18T05:21:44;40.47;;;18.90;;
3274;SDS011;1649;53.672;10.064;2022-11-18T05:24:10;41.27;;;19.27;;
3274;SDS011;1649;53.672;10.064;2022-11-18T05:26:35;42.20;;;19.20;;
3274;SDS011;1649;53.672;10.064;2022-11-18T05:29:01;38.77;;;17.80;;
3274;SDS011;1649;53.672;10.064;2022-11-18T05:31:26;41.60;;;18.87;;
3274;SDS011;1649;53.672;10.064;2022-11-18T05:33:52;43.83;;;20.03;;
3274;SDS011;1649;53.672;10.064;2022-11-18T05:36:18;40.63;;;19.00;;
3274;SDS011;1649;53.672;10.064;2022-11-18T05:38:45;45.45;;;19.92;;
3274;SDS011;1649;53.672;10.064;2022-11-18T05:41:11;46.20;;;21.07;;
3274;SDS011;1649;53.672;10.064;2022-11-18T05:43:57;52.90;;;21.47;;
3274;SDS011;1649;53.672;10.064;2022-11-18T05:46:23;40.93;;;19.00;;
3274;SDS011;1649;53.672;10.064;2022-11-18T05:48:48;47.10;;;20.00;;
3274;SDS011;1649;53.672;10.064;2022-11-18T05:51:14;42.57;;;18.87;;
3274;SDS011;1649;53.672;10.064;2022-11-18T05:53:40;45.47;;;21.90;;
3274;SDS011;1649;53.672;10.064;2022-11-18T05:58:49;42.65;;;20.08;;
3274;SDS011;1649;53.672;10.064;2022-11-18T06:01:17;43.47;;;18.37;;
3274;SDS011;1649;53.672;10.064;2022-11-18T06:03:50;42.42;;;19.45;;
3274;SDS011;1649;53.672;10.064;2022-11-18T06:06:17;53.23;;;23.33;;
3274;SDS011;1649;53.672;10.064;2022-11-18T06:08:47;41.42;;;20.83;;
3274;SDS011;1649;53.672;10.064;2022-11-18T06:11:19;43.50;;;20.60;;
3274;SDS011;1649;53.672;10.064;2022-11-18T06:14:29;43.78;;;20.45;;
3274;SDS011;1649;53.672;10.064;2022-11-18T06:16:54;47.17;;;20.40;;
3274;SDS011;1649;53.672;10.064;2022-11-18T06:19:23;49.65;;;21.50;;
3274;SDS011;1649;53.672;10.064;2022-11-18T06:21:49;41.58;;;19.05;;
3274;SDS011;1649;53.672;10.064;2022-11-18T06:24:15;43.90;;;19.40;;
3274;SDS011;1649;53.672;10.064;2022-11-18T06:26:42;46.55;;;19.20;;
3274;SDS011;1649;53.672;10.064;2022-11-18T06:29:08;39.65;;;18.10;;
3274;SDS011;1649;53.672;10.064;2022-11-18T06:31:37;44.95;;;20.25;;
3274;SDS011;1649;53.672;10.064;2022-11-18T06:34:02;41.27;;;21.27;;
3274;SDS011;1649;53.672;10.064;2022-11-18T06:36:28;43.60;;;19.17;;
3274;SDS011;1649;53.672;10.064;2022-11-18T06:38:53;42.30;;;19.20;;
3274;SDS011;1649;53.672;10.064;2022-11-18T06:41:19;42.20;;;19.70;;
3274;SDS011;1649;53.672;10.064;2022-11-18T06:43:44;35.50;;;16.33;;
3274;SDS011;1649;53.672;10.064;2022-11-18T06:46:10;40.37;;;19.57;;
3274;SDS011;1649;53.672;10.064;2022-11-18T06:48:57;45.00;;;19.80;;
3274;SDS011;1649;53.672;10.064;2022-11-18T06:51:23;37.88;;;18.80;;
3274;SDS011;1649;53.672;10.064;2022-11-18T06:53:48;42.13;;;18.57;;
3274;SDS011;1649;53.672;10.064;2022-11-18T06:56:15;40.40;;;18.10;;
3274;SDS011;1649;53.672;10.064;2022-11-18T06:58:41;40.37;;;17.80;;
3274;SDS011;1649;53.672;10.064;2022-11-18T07:01:08;37.27;;;18.87;;
3274;SDS011;1649;53.672;10.064;2022-11-18T07:03:41;42.47;;;18.90;;
3274;SDS011;1649;53.672;10.064;2022-11-18T07:06:10;41.05;;;17.40;;
3274;SDS011;1649;53.672;10.064;2022-11-18T07:08:37;34.72;;;15.80;;
3274;SDS011;1649;53.672;10.064;2022-11-18T07:11:04;37.05;;;18.17;;
3274;SDS011;1649;53.672;10.064;2022-11-18T07:13:32;46.50;;;20.87;;
3274;SDS011;1649;53.672;10.064;2022-11-18T07:16:08;41.57;;;18.60;;
3274;SDS011;1649;53.672;10.064;2022-11-18T07:18:42;36.53;;;17.35;;
3274;SDS011;1649;53.672;10.064;2022-11-18T07:21:18;39.83;;;18.80;;
3274;SDS011;1649;53.672;10.064;2022-11-18T07:23:45;41.08;;;19.92;;
3274;SDS011;1649;53.672;10.064;2022-11-18T07:26:12;41.87;;;20.00;;
3274;SDS011;1649;53.672;10.064;2022-11-18T07:28:38;45.78;;;20.77;;
3274;SDS011;1649;53.672;10.064;2022-11-18T07:31:04;42.17;;;18.40;;
3274;SDS011;1649;53.672;10.064;2022-11-18T07:33:41;44.47;;;20.00;;
3274;SDS011;1649;53.672;10.064;2022-11-18T07:36:08;41.47;;;16.83;;
3274;SDS011;1649;53.672;10.064;2022-11-18T07:38:34;42.45;;;20.75;;
3274;SDS011;1649;53.672;10.064;2022-11-18T07:41:03;37.60;;;19.00;;
3274;SDS011;1649;53.672;10.064;2022-11-18T07:43:36;46.45;;;22.00;;
3274;SDS011;1649;53.672;10.064;2022-11-18T07:48:37;38.87;;;19.00;;
3274;SDS011;1649;53.672;10.064;2022-11-18T07:51:03;35.58;;;17.52;;
3274;SDS011;1649;53.672;10.064;2022-11-18T07:53:29;39.30;;;18.77;;
3274;SDS011;1649;53.672;10.064;2022-11-18T07:55:56;33.80;;;15.77;;
3274;SDS011;1649;53.672;10.064;2022-11-18T07:58:21;36.97;;;16.83;;
3274;SDS011;1649;53.672;10.064;2022-11-18T08:00:47;37.87;;;17.70;;
3274;SDS011;1649;53.672;10.064;2022-11-18T08:03:12;39.40;;;18.70;;
3274;SDS011;1649;53.672;10.064;2022-11-18T08:05:37;36.33;;;18.27;;
3274;SDS011;1649;53.672;10.064;2022-11-18T08:08:03;37.97;;;16.90;;
3274;SDS011;1649;53.672;10.064;2022-11-18T08:10:29;36.13;;;18.03;;
3274;SDS011;1649;53.672;10.064;2022-11-18T08:12:55;36.67;;;17.60;;
3274;SDS011;1649;53.672;10.064;2022-11-18T08:15:21;39.80;;;18.23;;
3274;SDS011;1649;53.672;10.064;2022-11-18T08:17:46;33.87;;;16.87;;
3274;SDS011;1649;53.672;10.064;2022-11-18T08:20:12;41.50;;;17.37;;
3274;SDS011;1649;53.672;10.064;2022-11-18T08:22:38;34.17;;;16.50;;
3274;SDS011;1649;53.672;10.064;2022-11-18T08:25:04;28.50;;;15.57;;
3274;SDS011;1649;53.672;10.064;2022-11-18T08:27:30;35.83;;;16.27;;
3274;SDS011;1649;53.672;10.064;2022-11-18T08:29:56;33.97;;;16.23;;
3274;SDS011;1649;53.672;10.064;2022-11-18T08:32:22;33.77;;;15.60;;
3274;SDS011;1649;53.672;10.064;2022-11-18T08:34:48;33.30;;;15.90;;
3274;SDS011;1649;53.672;10.064;2022-11-18T08:37:14;30.40;;;16.23;;
3274;SDS011;1649;53.672;10.064;2022-11-18T08:39:40;32.27;;;15.90;;
3274;SDS011;1649;53.672;10.064;2022-11-18T08:42:06;29.70;;;14.70;;
3274;SDS011;1649;53.672;10.064;2022-11-18T08:44:31;27.53;;;13.13;;
3274;SDS011;1649;53.672;10.064;2022-11-18T08:46:59;32.33;;;14.70;;
3274;SDS011;1649;53.672;10.064;2022-11-18T08:49:25;25.73;;;14.07;;
3274;SDS011;1649;53.672;10.064;2022-11-18T08:51:50;27.43;;;13.97;;
3274;SDS011;1649;53.672;10.064;2022-11-18T08:54:16;27.03;;;13.13;;
3274;SDS011;1649;53.672;10.064;2022-11-18T08:56:41;28.00;;;14.00;;
3274;SDS011;1649;53.672;10.064;2022-11-18T08:59:07;25.83;;;11.57;;
3274;SDS011;1649;53.672;10.064;2022-11-18T09:01:34;24.58;;;12.00;;
3274;SDS011;1649;53.672;10.064;2022-11-18T09:04:01;25.75;;;12.48;;
3274;SDS011;1649;53.672;10.064;2022-11-18T09:06:27;22.83;;;11.83;;
3274;SDS011;1649;53.672;10.064;2022-11-18T09:08:53;24.53;;;11.77;;
3274;SDS011;1649;53.672;10.064;2022-11-18T09:11:19;24.00;;;13.00;;
3274;SDS011;1649;53.672;10.064;2022-11-18T09:13:46;22.20;;;11.87;;
3274;SDS011;1649;53.672;10.064;2022-11-18T09:16:15;22.37;;;12.07;;
3274;SDS011;1649;53.672;10.064;2022-11-18T09:18:41;22.07;;;10.80;;
3274;SDS011;1649;53.672;10.064;2022-11-18T09:21:07;22.20;;;11.50;;
3274;SDS011;1649;53.672;10.064;2022-11-18T09:23:34;22.47;;;11.67;;
3274;SDS011;1649;53.672;10.064;2022-11-18T09:26:11;19.00;;;10.00;;
3274;SDS011;1649;53.672;10.064;2022-11-18T09:28:38;18.60;;;9.60;;
3274;SDS011;1649;53.672;10.064;2022-11-18T09:31:04;20.10;;;10.60;;
3274;SDS011;1649;53.672;10.064;2022-11-18T09:33:32;21.10;;;10.00;;
3274;SDS011;1649;53.672;10.064;2022-11-18T09:35:57;20.80;;;11.33;;
3274;SDS011;1649;53.672;10.064;2022-11-18T09:38:23;23.30;;;11.33;;
3274;SDS011;1649;53.672;10.064;2022-11-18T09:43:18;20.10;;;9.30;;
3274;SDS011;1649;53.672;10.064;2022-11-18T09:45:52;20.23;;;11.10;;
3274;SDS011;1649;53.672;10.064;2022-11-18T09:48:22;18.13;;;9.73;;
3274;SDS011;1649;53.672;10.064;2022-11-18T09:51:09;17.15;;;8.95;;
3274;SDS011;1649;53.672;10.064;2022-11-18T09:53:36;18.13;;;9.20;;
3274;SDS011;1649;53.672;10.064;2022-11-18T09:56:09;20.50;;;9.43;;
3274;SDS011;1649;53.672;10.064;2022-11-18T09:58:38;15.60;;;8.90;;
3274;SDS011;1649;53.672;10.064;2022-11-18T10:01:08;17.47;;;8.83;;
3274;SDS011;1649;53.672;10.064;2022-11-18T10:03:37;15.83;;;8.50;;
3274;SDS011;1649;53.672;10.064;2022-11-18T10:08:43;15.77;;;8.50;;
3274;SDS011;1649;53.672;10.064;2022-11-18T10:11:14;16.80;;;8.60;;
3274;SDS011;1649;53.672;10.064;2022-11-18T10:16:30;21.67;;;9.47;;
3274;SDS011;1649;53.672;10.064;2022-11-18T10:24:16;15.63;;;8.13;;
3274;SDS011;1649;53.672;10.064;2022-11-18T10:26:44;14.23;;;7.27;;
3274;SDS011;1649;53.672;10.064;2022-11-18T10:29:09;12.83;;;5.27;;
3274;SDS011;1649;53.672;10.064;2022-11-18T10:31:38;14.57;;;7.03;;
3274;SDS011;1649;53.672;10.064;2022-11-18T10:34:16;15.20;;;7.60;;
3274;SDS011;1649;53.672;10.064;2022-11-18T10:36:43;14.33;;;7.17;;
3274;SDS011;1649;53.672;10.064;2022-11-18T10:39:23;13.50;;;7.50;;
3274;SDS011;1649;53.672;10.064;2022-11-18T10:41:53;16.27;;;8.27;;
3274;SDS011;1649;53.672;10.064;2022-11-18T10:44:31;15.73;;;7.93;;
3274;SDS011;1649;53.672;10.064;2022-11-18T10:47:19;15.60;;;8.27;;
3274;SDS011;1649;53.672;10.064;2022-11-18T10:49:54;14.40;;;6.50;;
3274;SDS011;1649;53.672;10.064;2022-11-18T10:52:22;11.73;;;6.75;;
3274;SDS011;1649;53.672;10.064;2022-11-18T10:55:05;15.07;;;7.20;;
3274;SDS011;1649;53.672;10.064;2022-11-18T10:57:43;11.50;;;6.40;;
3274;SDS011;1649;53.672;10.064;2022-11-18T11:00:51;13.10;;;6.70;;
3274;SDS011;1649;53.672;10.064;2022-11-18T11:03:13;14.40;;;6.83;;
3274;SDS011;1649;53.672;10.064;2022-11-18T11:11:34;13.73;;;6.83;;
3274;SDS011;1649;53.672;10.064;2022-11-18T11:14:05;11.83;;;6.57;;
3274;SDS011;1649;53.672;10.064;2022-11-18T11:16:40;14.47;;;7.50;;
3274;SDS011;1649;53.672;10.064;2022-11-18T11:19:29;14.37;;;7.87;;
3274;SDS011;1649;53.672;10.064;2022-11-18T11:22:08;13.07;;;6.53;;
3274;SDS011;1649;53.672;10.064;2022-11-18T11:24:35;12.90;;;7.17;;
3274;SDS011;1649;53.672;10.064;2022-11-18T11:27:16;12.83;;;6.80;;
3274;SDS011;1649;53.672;10.064;2022-11-18T11:37:59;11.27;;;6.40;;
3274;SDS011;1649;53.672;10.064;2022-11-18T11:40:31;14.37;;;7.47;;
3274;SDS011;1649;53.672;10.064;2022-11-18T11:43:20;15.70;;;6.50;;
3274;SDS011;1649;53.672;10.064;2022-11-18T11:46:11;14.13;;;7.10;;
3274;SDS011;1649;53.672;10.064;2022-11-18T11:48:53;14.73;;;6.93;;
3274;SDS011;1649;53.672;10.064;2022-11-18T11:51:31;13.83;;;6.90;;
3274;SDS011;1649;53.672;10.064;2022-11-18T12:04:57;11.87;;;6.03;;
3274;SDS011;1649;53.672;10.064;2022-11-18T12:07:38;11.23;;;6.20;;
3274;SDS011;1649;53.672;10.064;2022-11-18T12:10:21;10.17;;;5.77;;
3274;SDS011;1649;53.672;10.064;2022-11-18T12:13:42;10.67;;;5.60;;
3274;SDS011;1649;53.672;10.064;2022-11-18T12:19:02;11.30;;;5.30;;
3274;SDS011;1649;53.672;10.064;2022-11-18T12:24:23;9.67;;;4.70;;
3274;SDS011;1649;53.672;10.064;2022-11-18T12:27:06;11.40;;;5.57;;
3274;SDS011;1649;53.672;10.064;2022-11-18T12:40:32;11.93;;;5.20;;
3274;SDS011;1649;53.672;10.064;2022-11-18T12:44:04;11.47;;;5.73;;
3274;SDS011;1649;53.672;10.064;2022-11-18T12:51:46;10.20;;;4.73;;
3274;SDS011;1649;53.672;10.064;2022-11-18T12:54:24;8.53;;;4.40;;
3274;SDS011;1649;53.672;10.064;2022-11-18T12:56:50;12.57;;;7.40;;
3274;SDS011;1649;53.672;10.064;2022-11-18T12:59:23;9.13;;;5.00;;
3274;SDS011;1649;53.672;10.064;2022-11-18T13:01:59;14.83;;;5.27;;
3274;SDS011;1649;53.672;10.064;2022-11-18T13:04:26;9.73;;;5.10;;
3274;SDS011;1649;53.672;10.064;2022-11-18T13:06:52;14.50;;;5.37;;
3274;SDS011;1649;53.672;10.064;2022-11-18T13:09:23;9.97;;;4.30;;
3274;SDS011;1649;53.672;10.064;2022-11-18T13:11:53;10.57;;;4.80;;
3274;SDS011;1649;53.672;10.064;2022-11-18T13:17:29;10.27;;;4.77;;
3274;SDS011;1649;53.672;10.064;2022-11-18T13:22:51;9.30;;;4.20;;
3274;SDS011;1649;53.672;10.064;2022-11-18T13:25:37;6.90;;;3.60;;
3274;SDS011;1649;53.672;10.064;2022-11-18T13:30:44;12.70;;;3.83;;
3274;SDS011;1649;53.672;10.064;2022-11-18T13:33:15;8.13;;;3.93;;
3274;SDS011;1649;53.672;10.064;2022-11-18T13:35:40;8.17;;;4.17;;
3274;SDS011;1649;53.672;10.064;2022-11-18T13:38:15;8.47;;;4.10;;
3274;SDS011;1649;53.672;10.064;2022-11-18T13:40:44;7.53;;;3.73;;
3274;SDS011;1649;53.672;10.064;2022-11-18T13:43:28;8.30;;;3.83;;
3274;SDS011;1649;53.672;10.064;2022-11-18T13:45:58;11.50;;;3.83;;
3274;SDS011;1649;53.672;10.064;2022-11-18T13:48:25;7.23;;;4.10;;
3274;SDS011;1649;53.672;10.064;2022-11-18T13:50:52;8.10;;;4.10;;
3274;SDS011;1649;53.672;10.064;2022-11-18T13:56:17;6.23;;;3.47;;
3274;SDS011;1649;53.672;10.064;2022-11-18T14:01:17;6.70;;;3.80;;
3274;SDS011;1649;53.672;10.064;2022-11-18T14:03:47;7.73;;;3.73;;
3274;SDS011;1649;53.672;10.064;2022-11-18T14:06:43;6.97;;;3.70;;
3274;SDS011;1649;53.672;10.064;2022-11-18T14:11:43;8.43;;;3.50;;
3274;SDS011;1649;53.672;10.064;2022-11-18T14:15:10;7.90;;;4.00;;
3274;SDS011;1649;53.672;10.064;2022-11-18T14:19:57;6.70;;;3.70;;
3274;SDS011;1649;53.672;10.064;2022-11-18T14:22:25;7.80;;;3.93;;
3274;SDS011;1649;53.672;10.064;2022-11-18T14:24:57;8.40;;;3.40;;
3274;SDS011;1649;53.672;10.064;2022-11-18T14:30:28;9.40;;;4.13;;
3274;SDS011;1649;53.672;10.064;2022-11-18T14:35:42;6.90;;;3.67;;
3274;SDS011;1649;53.672;10.064;2022-11-18T14:38:21;8.50;;;4.03;;
3274;SDS011;1649;53.672;10.064;2022-11-18T14:40:56;8.20;;;3.70;;
3274;SDS011;1649;53.672;10.064;2022-11-18T14:43:23;7.73;;;4.30;;
3274;SDS011;1649;53.672;10.064;2022-11-18T14:45:51;9.13;;;4.10;;
3274;SDS011;1649;53.672;10.064;2022-11-18T14:48:19;12.13;;;5.00;;
3274;SDS011;1649;53.672;10.064;2022-11-18T14:50:45;11.60;;;5.03;;
3274;SDS011;1649;53.672;10.064;2022-11-18T14:53:12;8.80;;;3.90;;
3274;SDS011;1649;53.672;10.064;2022-11-18T14:55:38;8.97;;;3.90;;
3274;SDS011;1649;53.672;10.064;2022-11-18T14:58:04;8.10;;;3.50;;
3274;SDS011;1649;53.672;10.064;2022-11-18T15:00:30;7.27;;;3.40;;
3274;SDS011;1649;53.672;10.064;2022-11-18T15:02:55;7.40;;;3.50;;
3274;SDS011;1649;53.672;10.064;2022-11-18T15:05:21;8.17;;;3.40;;
3274;SDS011;1649;53.672;10.064;2022-11-18T15:07:46;7.20;;;3.47;;
3274;SDS011;1649;53.672;10.064;2022-11-18T15:10:12;6.77;;;3.17;;
3274;SDS011;1649;53.672;10.064;2022-11-18T15:12:39;6.03;;;3.00;;
3274;SDS011;1649;53.672;10.064;2022-11-18T15:15:05;9.00;;;3.43;;
3274;SDS011;1649;53.672;10.064;2022-11-18T15:17:31;6.90;;;3.30;;
3274;SDS011;1649;53.672;10.064;2022-11-18T15:19:56;7.57;;;3.47;;
3274;SDS011;1649;53.672;10.064;2022-11-18T15:22:22;8.73;;;3.90;;
3274;SDS011;1649;53.672;10.064;2022-11-18T15:24:48;6.50;;;3.20;;
3274;SDS011;1649;53.672;10.064;2022-11-18T15:27:13;7.10;;;3.10;;
3274;SDS011;1649;53.672;10.064;2022-11-18T15:29:38;7.60;;;3.70;;
3274;SDS011;1649;53.672;10.064;2022-11-18T15:32:04;8.33;;;3.73;;
3274;SDS011;1649;53.672;10.064;2022-11-18T15:34:30;7.30;;;3.20;;
3274;SDS011;1649;53.672;10.064;2022-11-18T15:36:56;8.53;;;4.30;;
3274;SDS011;1649;53.672;10.064;2022-11-18T15:39:21;11.37;;;4.33;;
3274;SDS011;1649;53.672;10.064;2022-11-18T15:41:47;6.77;;;3.60;;
3274;SDS011;1649;53.672;10.064;2022-11-18T15:44:12;9.23;;;4.80;;
3274;SDS011;1649;53.672;10.064;2022-11-18T15:46:38;9.30;;;4.57;;
3274;SDS011;1649;53.672;10.064;2022-11-18T15:49:03;10.40;;;4.83;;
3274;SDS011;1649;53.672;10.064;2022-11-18T15:51:29;10.83;;;4.70;;
3274;SDS011;1649;53.672;10.064;2022-11-18T15:53:55;10.30;;;5.00;;
3274;SDS011;1649;53.672;10.064;2022-11-18T15:56:28;10.90;;;6.20;;
3274;SDS011;1649;53.672;10.064;2022-11-18T15:58:55;8.20;;;4.55;;
3274;SDS011;1649;53.672;10.064;2022-11-18T16:01:26;12.93;;;5.75;;
3274;SDS011;1649;53.672;10.064;2022-11-18T16:03:53;11.02;;;5.50;;
3274;SDS011;1649;53.672;10.064;2022-11-18T16:06:19;12.73;;;4.87;;
3274;SDS011;1649;53.672;10.064;2022-11-18T16:08:45;10.40;;;5.10;;
3274;SDS011;1649;53.672;10.064;2022-11-18T16:11:12;8.67;;;4.60;;
3274;SDS011;1649;53.672;10.064;2022-11-18T16:14:03;10.50;;;4.72;;
3274;SDS011;1649;53.672;10.064;2022-11-18T16:16:30;12.52;;;4.65;;
3274;SDS011;1649;53.672;10.064;2022-11-18T16:18:57;8.77;;;4.30;;
3274;SDS011;1649;53.672;10.064;2022-11-18T16:21:27;8.52;;;4.00;;
3274;SDS011;1649;53.672;10.064;2022-11-18T16:23:57;9.73;;;4.07;;
3274;SDS011;1649;53.672;10.064;2022-11-18T16:26:24;7.70;;;4.23;;
3274;SDS011;1649;53.672;10.064;2022-11-18T16:28:51;7.72;;;3.90;;
3274;SDS011;1649;53.672;10.064;2022-11-18T16:31:17;8.07;;;4.17;;
3274;SDS011;1649;53.672;10.064;2022-11-18T16:34:08;6.60;;;3.55;;
3274;SDS011;1649;53.672;10.064;2022-11-18T16:36:39;8.02;;;4.13;;
3274;SDS011;1649;53.672;10.064;2022-11-18T16:39:10;6.50;;;3.17;;